SPQT Airport Information

Runway Information
Runway 06 Length 8202 ft width 148 ft
Elevation 306 ft Threshold 0 ft Heading 57
Runway 24 Length 8202 ft Width 148 ft
Elevation 295 ft Threshold 0 ft Heading 237
Airport Frequencies
Type APP Name IQUITOS AP Frequency 124.1 MHZ
Type TWR Name IQUITOS TW Frequency 118.5 MHZ
Airport Navaids
Type NDB Name Iquitos Frequency 335 KHZ
Type VOR-DME Name Iquitos Frequency 116500 KHZ
Airport Weather Information & NOTAM
ADDS - METARS form results

(1453 UTC 22 July 2018)
 
METAR text: SPQT 221400Z 00000KT 8000 -DZ BKN006 OVC040 23/22 Q1016 NOSIG RMK PP008
Conditions at: SPQT (IQUITOS/SECADA , PE) observed 1400 UTC 22 July 2018
Temperature: 23.0°C (73°F)
Dewpoint: 22.0°C (72°F) [RH = 94%]
Pressure (altimeter): 30.00 inches Hg (1016.0 mb)
Winds: calm
Visibility: 5 miles (8 km)
Ceiling: 600 feet AGL
Clouds: broken clouds at 600 feet AGL
overcast cloud deck at 4000 feet AGL
Weather: -DZ  (light drizzle)